Time;durP1;ratioP1;P1;durP2;ratioP2;P2;SDS_P1;SDS_P2;PMS_P1;PMS_P2;Temp;Humidity;BMP_temperature;BMP_pressure;BME280_temperature;BME280_humidity;BME280_pressure;Samples;Min_cycle;Max_cycle;Signal;HPM_P1;HPM_P2
2021/05/25 00:02:06;;;;;;;0.47;0.47;;;;;;;;;;5034301;28;20053;-40
2021/05/25 00:04:31;;;;;;;2.00;1.05;;;;;;;;;;5002909;28;20037;-39
2021/05/25 00:06:57;;;;;;;3.83;1.27;;;;;;;;;;5017530;28;20041;-42
2021/05/25 00:09:22;;;;;;;1.15;0.98;;;;;;;;;;5018117;28;20042;-39
2021/05/25 00:11:47;;;;;;;2.30;0.88;;;;;;;;;;5016139;28;20030;-41
2021/05/25 00:14:18;;;;;;;2.05;1.23;;;;;;;;;;5012970;28;20061;-40
2021/05/25 00:16:43;;;;;;;1.58;0.95;;;;;;;;;;4998780;28;20713;-40
2021/05/25 00:19:18;;;;;;;1.85;1.30;;;;;;;;;;5011794;28;20038;-40
2021/05/25 00:21:43;;;;;;;1.60;1.23;;;;;;;;;;5020312;28;20531;-39
2021/05/25 00:24:09;;;;;;;1.27;0.50;;;;;;;;;;5017556;28;20029;-40
2021/05/25 00:26:34;;;;;;;1.15;0.73;;;;;;;;;;5016918;28;20423;-41
2021/05/25 00:28:59;;;;;;;12.63;1.15;;;;;;;;;;5016102;28;20041;-38
2021/05/25 00:31:25;;;;;;;5.75;1.08;;;;;;;;;;5011767;28;20502;-39
2021/05/25 00:33:50;;;;;;;7.32;1.60;;;;;;;;;;5016910;28;20406;-39
2021/05/25 00:36:15;;;;;;;1.00;0.75;;;;;;;;;;5016780;28;20025;-39
2021/05/25 00:38:41;;;;;;;2.42;1.27;;;;;;;;;;5014902;28;20117;-40
2021/05/25 00:41:06;;;;;;;1.95;1.08;;;;;;;;;;5017696;28;20042;-39
2021/05/25 00:43:31;;;;;;;0.82;0.43;;;;;;;;;;5017651;28;20466;-39
2021/05/25 00:45:57;;;;;;;10.82;1.58;;;;;;;;;;5013251;28;20038;-40
2021/05/25 00:48:22;;;;;;;2.08;1.23;;;;;;;;;;5013519;28;20037;-39
2021/05/25 00:50:48;;;;;;;1.58;0.90;;;;;;;;;;5014590;28;20030;-40
2021/05/25 00:56:16;;;;;;;3.53;1.55;;;;;;;;;;5017632;28;20020;-41
2021/05/25 00:58:42;;;;;;;4.07;0.88;;;;;;;;;;5020409;28;20417;-40
2021/05/25 01:01:07;;;;;;;4.38;1.13;;;;;;;;;;5017783;28;20030;-39
2021/05/25 01:03:33;;;;;;;3.55;0.90;;;;;;;;;;5019011;28;20047;-39
2021/05/25 01:05:59;;;;;;;0.68;0.43;;;;;;;;;;5017492;28;20040;-41
2021/05/25 01:08:24;;;;;;;8.77;1.38;;;;;;;;;;5023343;28;20394;-39
2021/05/25 01:10:56;;;;;;;1.90;0.85;;;;;;;;;;5019385;28;20095;-42
2021/05/25 01:13:23;;;;;;;3.03;1.25;;;;;;;;;;5014960;28;20068;-39
2021/05/25 01:15:49;;;;;;;6.50;1.30;;;;;;;;;;5021301;28;20022;-39
2021/05/25 01:18:15;;;;;;;2.53;1.17;;;;;;;;;;5020523;28;20029;-39
2021/05/25 01:20:42;;;;;;;1.10;0.82;;;;;;;;;;5015226;28;20033;-39
2021/05/25 01:23:08;;;;;;;1.20;0.95;;;;;;;;;;5020547;28;20034;-46
2021/05/25 01:25:34;;;;;;;1.50;0.80;;;;;;;;;;5020629;28;20137;-39
2021/05/25 01:28:01;;;;;;;4.55;1.27;;;;;;;;;;5016316;28;20591;-43
2021/05/25 01:30:30;;;;;;;1.42;0.98;;;;;;;;;;5022267;28;20048;-40
2021/05/25 01:32:57;;;;;;;3.40;1.25;;;;;;;;;;5019716;28;20037;-40
2021/05/25 01:35:23;;;;;;;3.42;1.00;;;;;;;;;;5017559;28;20034;-39
2021/05/25 01:37:49;;;;;;;2.55;1.65;;;;;;;;;;5018682;28;20064;-39
2021/05/25 01:40:14;;;;;;;1.65;0.98;;;;;;;;;;5021984;28;20065;-40
2021/05/25 01:42:40;;;;;;;4.72;0.45;;;;;;;;;;5017925;28;20070;-40
2021/05/25 01:45:07;;;;;;;1.48;0.90;;;;;;;;;;5017239;28;20029;-39
2021/05/25 01:47:33;;;;;;;2.30;0.85;;;;;;;;;;5017636;28;20720;-40
2021/05/25 01:50:11;;;;;;;1.80;0.90;;;;;;;;;;5016430;28;20120;-39
2021/05/25 01:52:51;;;;;;;5.35;1.60;;;;;;;;;;5019197;28;20057;-39
2021/05/25 01:55:24;;;;;;;5.82;1.10;;;;;;;;;;5017709;28;20105;-39
2021/05/25 01:57:50;;;;;;;1.73;0.88;;;;;;;;;;5017332;28;20038;-40
2021/05/25 02:00:15;;;;;;;2.83;1.35;;;;;;;;;;5019413;28;20033;-40
2021/05/25 02:02:41;;;;;;;2.05;0.57;;;;;;;;;;5016719;28;20530;-40
2021/05/25 02:05:06;;;;;;;1.65;0.90;;;;;;;;;;5019990;28;20410;-39
2021/05/25 02:07:31;;;;;;;4.47;1.33;;;;;;;;;;5034985;28;20129;-39
2021/05/25 02:09:57;;;;;;;2.97;1.35;;;;;;;;;;5020607;28;20507;-39
2021/05/25 02:12:22;;;;;;;4.18;1.10;;;;;;;;;;5022535;28;20068;-39
2021/05/25 02:14:47;;;;;;;1.88;1.17;;;;;;;;;;5023580;28;20068;-39
2021/05/25 02:17:13;;;;;;;4.47;2.15;;;;;;;;;;5020828;28;20092;-39
2021/05/25 02:19:38;;;;;;;3.22;1.33;;;;;;;;;;5037489;28;20030;-39
2021/05/25 02:22:03;;;;;;;1.45;1.13;;;;;;;;;;5023648;28;20124;-38
2021/05/25 02:24:30;;;;;;;1.73;0.90;;;;;;;;;;5019601;28;20186;-39
2021/05/25 02:26:55;;;;;;;1.98;1.13;;;;;;;;;;5023108;28;20521;-39
2021/05/25 02:29:20;;;;;;;1.90;1.15;;;;;;;;;;5019175;28;20117;-38
2021/05/25 02:31:46;;;;;;;1.10;0.60;;;;;;;;;;5021423;28;20033;-38
2021/05/25 02:34:11;;;;;;;2.67;1.63;;;;;;;;;;5020996;28;20065;-38
2021/05/25 02:36:36;;;;;;;2.88;1.30;;;;;;;;;;5017329;28;20057;-39
2021/05/25 02:39:04;;;;;;;1.10;0.60;;;;;;;;;;5018479;28;20509;-38
2021/05/25 02:41:29;;;;;;;1.50;1.08;;;;;;;;;;5023179;28;20041;-39
2021/05/25 02:43:54;;;;;;;1.85;1.35;;;;;;;;;;5023288;28;20036;-38
2021/05/25 02:46:20;;;;;;;3.00;1.75;;;;;;;;;;5027707;28;20048;-38
2021/05/25 02:48:45;;;;;;;3.35;1.52;;;;;;;;;;5023596;28;20037;-39
2021/05/25 02:51:10;;;;;;;2.85;1.45;;;;;;;;;;5021660;28;20549;-39
2021/05/25 02:53:35;;;;;;;2.50;1.40;;;;;;;;;;5023999;28;20032;-39
2021/05/25 02:56:01;;;;;;;1.88;0.82;;;;;;;;;;5018949;28;20036;-39
2021/05/25 02:58:26;;;;;;;0.57;0.30;;;;;;;;;;5021134;28;20030;-39
2021/05/25 03:00:52;;;;;;;5.78;1.00;;;;;;;;;;5019182;28;20029;-39
2021/05/25 03:03:17;;;;;;;1.50;0.93;;;;;;;;;;5021978;28;20408;-39
2021/05/25 03:05:43;;;;;;;0.90;0.60;;;;;;;;;;5021652;28;20033;-40
2021/05/25 03:08:09;;;;;;;3.47;0.60;;;;;;;;;;5026342;28;20048;-39
2021/05/25 03:10:36;;;;;;;1.95;0.93;;;;;;;;;;5021288;28;20037;-39
2021/05/25 03:13:02;;;;;;;1.23;0.80;;;;;;;;;;5021688;28;20470;-38
2021/05/25 03:15:32;;;;;;;1.67;1.00;;;;;;;;;;5020907;28;20034;-39
2021/05/25 03:17:57;;;;;;;3.83;1.58;;;;;;;;;;5021560;28;20031;-38
2021/05/25 03:20:23;;;;;;;2.42;1.08;;;;;;;;;;5018794;28;20112;-38
2021/05/25 03:22:49;;;;;;;1.92;0.98;;;;;;;;;;5020958;28;20030;-40
2021/05/25 03:25:15;;;;;;;1.60;0.80;;;;;;;;;;5020910;28;20034;-40
2021/05/25 03:27:41;;;;;;;8.43;1.30;;;;;;;;;;5021616;28;20045;-41
2021/05/25 03:30:08;;;;;;;2.63;1.20;;;;;;;;;;5020907;28;20083;-40
2021/05/25 03:32:34;;;;;;;3.67;0.82;;;;;;;;;;5017617;28;20033;-39
2021/05/25 03:34:59;;;;;;;0.73;0.50;;;;;;;;;;5018618;28;20041;-40
2021/05/25 03:37:24;;;;;;;1.25;0.98;;;;;;;;;;5022464;28;20079;-39
2021/05/25 03:39:50;;;;;;;1.30;0.70;;;;;;;;;;5023142;28;20542;-39
2021/05/25 03:42:15;;;;;;;1.10;0.65;;;;;;;;;;5019520;28;20091;-39
2021/05/25 03:44:40;;;;;;;4.43;1.27;;;;;;;;;;5024032;28;20033;-39
2021/05/25 03:47:06;;;;;;;1.20;0.80;;;;;;;;;;5021601;28;20041;-39
2021/05/25 03:49:31;;;;;;;1.30;0.82;;;;;;;;;;5023995;28;20026;-40
2021/05/25 03:51:56;;;;;;;1.20;0.77;;;;;;;;;;5023775;28;20474;-39
2021/05/25 03:54:30;;;;;;;1.65;1.08;;;;;;;;;;5018644;28;20029;-39
2021/05/25 03:56:59;;;;;;;1.52;0.82;;;;;;;;;;5018053;28;20109;-38
2021/05/25 03:59:25;;;;;;;1.00;0.77;;;;;;;;;;5020555;28;20156;-39
2021/05/25 04:01:51;;;;;;;2.17;0.85;;;;;;;;;;5015141;28;20167;-39
2021/05/25 04:04:16;;;;;;;3.45;1.13;;;;;;;;;;5021658;28;20092;-39
2021/05/25 04:06:42;;;;;;;2.28;1.38;;;;;;;;;;5022712;28;20037;-38
2021/05/25 04:09:08;;;;;;;2.03;1.17;;;;;;;;;;5016944;28;20513;-39
2021/05/25 04:11:34;;;;;;;4.97;0.80;;;;;;;;;;5018362;28;20038;-39
2021/05/25 04:14:00;;;;;;;2.22;1.15;;;;;;;;;;5021421;28;20033;-39
2021/05/25 04:16:25;;;;;;;6.00;1.63;;;;;;;;;;5001559;28;20486;-39
2021/05/25 04:18:50;;;;;;;1.08;0.98;;;;;;;;;;5019603;28;20034;-41
2021/05/25 04:21:16;;;;;;;1.52;1.10;;;;;;;;;;5021444;28;20026;-39
2021/05/25 04:23:41;;;;;;;1.90;1.30;;;;;;;;;;5016831;28;20096;-39
2021/05/25 04:26:06;;;;;;;4.53;1.98;;;;;;;;;;5016436;28;20087;-39
2021/05/25 04:28:32;;;;;;;2.80;1.35;;;;;;;;;;5018294;28;20033;-39
2021/05/25 04:30:57;;;;;;;4.00;1.20;;;;;;;;;;5018270;28;20029;-39
2021/05/25 04:33:23;;;;;;;4.22;1.45;;;;;;;;;;5018160;28;20809;-39
2021/05/25 04:35:48;;;;;;;3.95;1.30;;;;;;;;;;5019859;28;20026;-40
2021/05/25 04:38:14;;;;;;;2.53;1.48;;;;;;;;;;5017327;28;20041;-38
2021/05/25 04:40:42;;;;;;;1.80;1.23;;;;;;;;;;5020045;28;20030;-38
2021/05/25 04:43:08;;;;;;;2.67;1.33;;;;;;;;;;5018758;28;20525;-39
2021/05/25 04:45:33;;;;;;;1.35;1.00;;;;;;;;;;5017044;28;20121;-39
2021/05/25 04:47:59;;;;;;;3.20;1.30;;;;;;;;;;5015548;28;20124;-39
2021/05/25 04:50:24;;;;;;;9.52;2.85;;;;;;;;;;5018739;28;20621;-40
2021/05/25 04:52:50;;;;;;;9.98;1.60;;;;;;;;;;5017759;28;20030;-39
2021/05/25 04:55:17;;;;;;;0.93;0.60;;;;;;;;;;5016619;28;20030;-39
2021/05/25 04:57:42;;;;;;;4.03;1.35;;;;;;;;;;5017844;28;20036;-38
2021/05/25 05:00:09;;;;;;;1.58;1.30;;;;;;;;;;5017023;28;20029;-39
2021/05/25 05:02:34;;;;;;;2.45;0.98;;;;;;;;;;5020898;28;20508;-41
2021/05/25 05:05:00;;;;;;;3.20;1.35;;;;;;;;;;5018735;28;20514;-39
2021/05/25 05:07:25;;;;;;;1.23;0.63;;;;;;;;;;5020937;28;20060;-40
2021/05/25 05:09:50;;;;;;;3.83;1.60;;;;;;;;;;5022336;28;20037;-39
2021/05/25 05:12:16;;;;;;;2.00;1.35;;;;;;;;;;5021299;28;20026;-39
2021/05/25 05:14:41;;;;;;;2.25;1.20;;;;;;;;;;5018962;28;20030;-40
2021/05/25 05:17:06;;;;;;;9.73;1.30;;;;;;;;;;5018416;28;20017;-39
2021/05/25 05:19:32;;;;;;;9.18;1.40;;;;;;;;;;5019375;28;20116;-41
2021/05/25 05:21:57;;;;;;;7.15;1.23;;;;;;;;;;5018193;28;20025;-40
2021/05/25 05:24:22;;;;;;;1.90;1.10;;;;;;;;;;5017172;28;20038;-40
2021/05/25 05:26:48;;;;;;;3.05;1.50;;;;;;;;;;5017022;28;20112;-42
2021/05/25 05:29:13;;;;;;;1.75;0.93;;;;;;;;;;5020138;28;20033;-43
2021/05/25 05:31:39;;;;;;;7.43;1.13;;;;;;;;;;5017733;28;20038;-43
2021/05/25 05:34:04;;;;;;;2.08;0.95;;;;;;;;;;5013146;28;20025;-44
2021/05/25 05:36:30;;;;;;;3.97;2.15;;;;;;;;;;5017057;28;20099;-43
2021/05/25 05:38:55;;;;;;;1.55;1.08;;;;;;;;;;5014474;28;20464;-44
2021/05/25 05:41:20;;;;;;;2.15;1.08;;;;;;;;;;5018213;28;20041;-46
2021/05/25 05:43:46;;;;;;;2.58;1.45;;;;;;;;;;5015895;28;20041;-42
2021/05/25 05:46:13;;;;;;;3.63;1.27;;;;;;;;;;5021564;28;20034;-43
2021/05/25 05:48:38;;;;;;;6.57;1.58;;;;;;;;;;5021609;28;20034;-45
2021/05/25 05:51:03;;;;;;;4.15;1.45;;;;;;;;;;5018188;28;20406;-44
2021/05/25 05:53:29;;;;;;;8.85;2.25;;;;;;;;;;5018344;28;20025;-43
2021/05/25 05:55:54;;;;;;;4.75;1.17;;;;;;;;;;5018686;28;20021;-44
2021/05/25 05:58:20;;;;;;;11.63;1.73;;;;;;;;;;5019617;28;20030;-54
2021/05/25 06:00:45;;;;;;;2.17;0.95;;;;;;;;;;5019661;28;20029;-54
2021/05/25 06:03:11;;;;;;;1.35;0.60;;;;;;;;;;5015604;28;20041;-54
2021/05/25 06:05:37;;;;;;;7.90;1.55;;;;;;;;;;5019968;28;20041;-55
2021/05/25 06:08:03;;;;;;;9.65;1.50;;;;;;;;;;5018764;28;20030;-54
2021/05/25 06:10:30;;;;;;;0.75;0.68;;;;;;;;;;5017503;28;20125;-53
2021/05/25 06:12:56;;;;;;;1.85;1.48;;;;;;;;;;5019345;28;20777;-52
2021/05/25 06:15:21;;;;;;;6.05;2.13;;;;;;;;;;5018324;28;20104;-53
2021/05/25 06:17:47;;;;;;;4.95;2.13;;;;;;;;;;5016938;28;20414;-52
2021/05/25 06:20:12;;;;;;;3.25;1.25;;;;;;;;;;5015512;28;20169;-53
2021/05/25 06:22:37;;;;;;;1.23;0.70;;;;;;;;;;5018055;28;20103;-50
2021/05/25 06:25:03;;;;;;;3.42;1.95;;;;;;;;;;5017183;28;20029;-53
2021/05/25 06:27:28;;;;;;;3.25;2.22;;;;;;;;;;5016433;28;20065;-53
2021/05/25 06:29:54;;;;;;;2.35;1.45;;;;;;;;;;5013859;28;20042;-52
2021/05/25 06:32:19;;;;;;;5.18;1.80;;;;;;;;;;5018837;28;20026;-53
2021/05/25 06:34:45;;;;;;;0.90;0.65;;;;;;;;;;5016281;28;20398;-49
2021/05/25 06:40:13;;;;;;;3.30;1.55;;;;;;;;;;5011476;28;20560;-51
2021/05/25 06:42:39;;;;;;;2.40;1.40;;;;;;;;;;5018671;28;20041;-52
2021/05/25 06:45:29;;;;;;;1.80;0.90;;;;;;;;;;5014874;28;20033;-51
2021/05/25 06:47:54;;;;;;;14.75;1.45;;;;;;;;;;5018194;28;20121;-50
2021/05/25 06:50:20;;;;;;;10.93;8.98;;;;;;;;;;5016243;28;20128;-53
2021/05/25 06:52:45;;;;;;;19.48;12.88;;;;;;;;;;5023471;28;20045;-51
2021/05/25 06:55:11;;;;;;;42.50;37.92;;;;;;;;;;5020431;28;20502;-49
2021/05/25 06:57:37;;;;;;;56.65;49.80;;;;;;;;;;5016248;28;20479;-50
2021/05/25 07:00:06;;;;;;;317.17;282.27;;;;;;;;;;5019023;28;20052;-49
2021/05/25 07:02:31;;;;;;;44.13;39.50;;;;;;;;;;5018347;28;20273;-52
2021/05/25 07:04:57;;;;;;;7.55;3.80;;;;;;;;;;5017052;28;20536;-43
2021/05/25 07:07:22;;;;;;;53.03;42.38;;;;;;;;;;5022550;28;20131;-44
2021/05/25 07:09:48;;;;;;;103.72;92.68;;;;;;;;;;5024647;28;20021;-41
2021/05/25 07:12:13;;;;;;;36.95;33.67;;;;;;;;;;5023113;28;20064;-42
2021/05/25 07:14:39;;;;;;;36.30;32.17;;;;;;;;;;5021794;28;20030;-43
2021/05/25 07:17:04;;;;;;;15.25;13.57;;;;;;;;;;5019262;28;20040;-45
2021/05/25 07:19:30;;;;;;;43.60;38.83;;;;;;;;;;5020603;28;20042;-41
2021/05/25 07:21:55;;;;;;;13.07;9.90;;;;;;;;;;5021684;28;20042;-42
2021/05/25 07:24:20;;;;;;;7.95;3.15;;;;;;;;;;5022113;28;20037;-41
2021/05/25 07:26:46;;;;;;;11.00;4.13;;;;;;;;;;5024964;28;20057;-40
2021/05/25 07:29:11;;;;;;;8.13;1.73;;;;;;;;;;5022512;28;20411;-42
2021/05/25 07:31:36;;;;;;;2.63;1.80;;;;;;;;;;5021415;28;20041;-41
2021/05/25 07:34:02;;;;;;;2.88;1.73;;;;;;;;;;5019194;28;20029;-40
2021/05/25 07:36:27;;;;;;;4.93;1.45;;;;;;;;;;5022877;28;20053;-42
2021/05/25 07:38:53;;;;;;;2.72;2.03;;;;;;;;;;5021899;28;20038;-43
2021/05/25 07:41:19;;;;;;;1.88;1.40;;;;;;;;;;5022455;28;20042;-41
2021/05/25 07:43:44;;;;;;;14.23;2.05;;;;;;;;;;5018912;28;20026;-40
2021/05/25 07:46:10;;;;;;;2.30;1.63;;;;;;;;;;5021478;28;20495;-41
2021/05/25 07:48:35;;;;;;;8.02;6.32;;;;;;;;;;5020993;28;20120;-40
2021/05/25 07:51:01;;;;;;;22.80;17.73;;;;;;;;;;5019725;28;20410;-42
2021/05/25 07:53:26;;;;;;;10.90;3.60;;;;;;;;;;5020908;28;20064;-41
2021/05/25 07:55:51;;;;;;;4.15;2.28;;;;;;;;;;5022664;28;20355;-42
2021/05/25 07:58:17;;;;;;;6.40;2.55;;;;;;;;;;5019813;28;20079;-42
2021/05/25 08:00:42;;;;;;;4.22;2.78;;;;;;;;;;5020785;28;20033;-42
2021/05/25 08:03:07;;;;;;;9.73;1.90;;;;;;;;;;5020865;28;20069;-44
2021/05/25 08:05:33;;;;;;;7.05;2.90;;;;;;;;;;5019257;28;20048;-42
2021/05/25 08:08:02;;;;;;;3.22;1.50;;;;;;;;;;5023615;28;20048;-41
2021/05/25 08:10:27;;;;;;;5.03;2.92;;;;;;;;;;5021120;28;20514;-43
2021/05/25 08:12:52;;;;;;;4.10;2.38;;;;;;;;;;5019758;28;20038;-41
2021/05/25 08:15:18;;;;;;;3.92;2.30;;;;;;;;;;5023701;28;20483;-41
2021/05/25 08:20:27;;;;;;;3.55;1.42;;;;;;;;;;5018845;28;20066;-42
2021/05/25 08:22:54;;;;;;;10.70;2.63;;;;;;;;;;5016696;28;20036;-41
2021/05/25 08:25:22;;;;;;;7.47;1.67;;;;;;;;;;5017708;28;20025;-42
2021/05/25 08:27:48;;;;;;;13.75;2.45;;;;;;;;;;5021253;28;20517;-44
2021/05/25 08:30:15;;;;;;;2.85;1.60;;;;;;;;;;5031997;28;20042;-41
2021/05/25 08:32:40;;;;;;;6.30;1.55;;;;;;;;;;5016516;28;20022;-44
2021/05/25 08:35:06;;;;;;;4.03;1.92;;;;;;;;;;5017013;28;20033;-42
2021/05/25 08:37:33;;;;;;;4.05;2.15;;;;;;;;;;5016735;28;20427;-42
2021/05/25 08:39:59;;;;;;;9.25;1.92;;;;;;;;;;5020987;28;20037;-43
2021/05/25 08:42:24;;;;;;;2.38;1.75;;;;;;;;;;5018628;28;20469;-42
2021/05/25 08:44:49;;;;;;;2.63;1.92;;;;;;;;;;5018753;28;20029;-42
2021/05/25 08:47:16;;;;;;;9.02;2.47;;;;;;;;;;5018727;28;20040;-44
2021/05/25 08:49:41;;;;;;;5.05;1.85;;;;;;;;;;5015028;28;20070;-43
2021/05/25 08:52:08;;;;;;;4.07;1.98;;;;;;;;;;5016526;28;20026;-42
2021/05/25 08:54:34;;;;;;;8.38;1.65;;;;;;;;;;5019323;28;20100;-41
2021/05/25 08:56:59;;;;;;;1.25;1.08;;;;;;;;;;5017471;28;20613;-43
2021/05/25 08:59:24;;;;;;;7.13;2.25;;;;;;;;;;5020759;28;20029;-43
2021/05/25 09:01:50;;;;;;;7.65;1.90;;;;;;;;;;5014112;28;20029;-42
2021/05/25 09:04:17;;;;;;;5.28;1.80;;;;;;;;;;5031012;28;20037;-41
2021/05/25 09:06:46;;;;;;;5.30;1.50;;;;;;;;;;5017643;28;20029;-41
2021/05/25 09:09:12;;;;;;;5.63;2.40;;;;;;;;;;5020298;28;20038;-41
2021/05/25 09:11:56;;;;;;;5.68;3.55;;;;;;;;;;5019437;28;20038;-41
2021/05/25 09:14:21;;;;;;;9.13;2.35;;;;;;;;;;5016309;28;20026;-42
2021/05/25 09:16:47;;;;;;;4.55;2.50;;;;;;;;;;5021901;28;20386;-42
2021/05/25 09:19:12;;;;;;;3.80;1.58;;;;;;;;;;5020473;28;20129;-40
2021/05/25 09:21:37;;;;;;;5.63;2.45;;;;;;;;;;5020505;28;20108;-42
2021/05/25 09:24:03;;;;;;;3.47;1.55;;;;;;;;;;5016863;28;20055;-43
2021/05/25 09:26:32;;;;;;;4.53;1.48;;;;;;;;;;5017519;28;20096;-41
2021/05/25 09:28:57;;;;;;;4.32;2.08;;;;;;;;;;5018818;28;20038;-41
2021/05/25 09:31:26;;;;;;;9.23;1.70;;;;;;;;;;5015498;28;20095;-44
2021/05/25 09:34:07;;;;;;;5.80;1.60;;;;;;;;;;5019641;28;20053;-43
2021/05/25 09:36:53;;;;;;;3.58;2.30;;;;;;;;;;5019079;28;20071;-43
2021/05/25 09:39:18;;;;;;;6.30;3.33;;;;;;;;;;5017964;28;20105;-42
2021/05/25 09:41:56;;;;;;;5.82;2.63;;;;;;;;;;5021519;28;20108;-41
2021/05/25 09:44:21;;;;;;;4.72;2.25;;;;;;;;;;5017208;28;20075;-41
2021/05/25 09:46:49;;;;;;;11.23;3.03;;;;;;;;;;5019278;28;20434;-44
2021/05/25 09:49:15;;;;;;;5.63;2.05;;;;;;;;;;5016444;28;20034;-41
2021/05/25 09:51:41;;;;;;;6.15;1.98;;;;;;;;;;5019734;28;20038;-42
2021/05/25 09:54:17;;;;;;;5.22;1.25;;;;;;;;;;5019472;28;20080;-42
2021/05/25 09:56:55;;;;;;;4.88;1.85;;;;;;;;;;5018517;28;20041;-41
2021/05/25 09:59:27;;;;;;;7.80;2.92;;;;;;;;;;5019687;28;20025;-41
2021/05/25 10:01:52;;;;;;;5.78;2.20;;;;;;;;;;5015364;28;20057;-42
2021/05/25 10:04:17;;;;;;;3.90;2.08;;;;;;;;;;5016273;28;20033;-44
2021/05/25 10:06:44;;;;;;;5.18;3.40;;;;;;;;;;5017736;28;20033;-41
2021/05/25 10:09:10;;;;;;;3.13;1.55;;;;;;;;;;5017036;28;20162;-42
2021/05/25 10:11:41;;;;;;;3.45;1.67;;;;;;;;;;5018755;28;20438;-41
2021/05/25 10:14:08;;;;;;;7.15;1.95;;;;;;;;;;5019579;28;20030;-41
2021/05/25 10:16:37;;;;;;;6.85;2.33;;;;;;;;;;5017665;28;20499;-42
2021/05/25 10:21:35;;;;;;;6.40;2.33;;;;;;;;;;5017163;28;20033;-41
2021/05/25 10:24:00;;;;;;;6.00;1.98;;;;;;;;;;5017243;28;20034;-42
2021/05/25 10:26:26;;;;;;;6.13;1.55;;;;;;;;;;5022297;28;20476;-43
2021/05/25 10:28:52;;;;;;;6.93;1.92;;;;;;;;;;5023144;28;20121;-42
2021/05/25 10:31:35;;;;;;;8.63;2.38;;;;;;;;;;5018271;28;20026;-42
2021/05/25 10:34:14;;;;;;;5.15;1.48;;;;;;;;;;5022142;28;20446;-41
2021/05/25 10:37:06;;;;;;;8.07;2.35;;;;;;;;;;5018742;28;20038;-42
2021/05/25 10:39:36;;;;;;;9.82;3.47;;;;;;;;;;5020515;28;20495;-43
2021/05/25 10:42:21;;;;;;;2.00;1.65;;;;;;;;;;5023107;28;20140;-41
2021/05/25 10:44:54;;;;;;;9.50;4.03;;;;;;;;;;5018268;28;20041;-41
2021/05/25 10:47:28;;;;;;;7.03;3.35;;;;;;;;;;5020759;28;20105;-41
2021/05/25 10:50:11;;;;;;;6.88;2.65;;;;;;;;;;5021549;28;20026;-42
2021/05/25 10:52:36;;;;;;;16.10;3.70;;;;;;;;;;5022051;28;20049;-42
2021/05/25 10:55:02;;;;;;;10.48;3.33;;;;;;;;;;5024719;28;20456;-46
2021/05/25 10:57:29;;;;;;;14.02;4.13;;;;;;;;;;5020388;28;20035;-43
2021/05/25 11:00:00;;;;;;;13.85;4.30;;;;;;;;;;5021066;28;20123;-44
2021/05/25 11:02:42;;;;;;;12.98;4.25;;;;;;;;;;5020280;28;20529;-43
2021/05/25 11:05:26;;;;;;;12.40;3.35;;;;;;;;;;5021418;28;20067;-42
2021/05/25 11:07:52;;;;;;;5.30;2.00;;;;;;;;;;5021883;28;20033;-42
2021/05/25 11:10:26;;;;;;;6.57;3.20;;;;;;;;;;5019165;28;20068;-44
2021/05/25 11:13:30;;;;;;;6.55;2.15;;;;;;;;;;5020385;28;20022;-44
2021/05/25 11:16:09;;;;;;;15.13;2.53;;;;;;;;;;4991821;28;20034;-45
2021/05/25 11:18:41;;;;;;;30.20;4.43;;;;;;;;;;4994335;28;20792;-45
2021/05/25 11:21:29;;;;;;;7.15;3.13;;;;;;;;;;5008082;28;20495;-46
2021/05/25 11:23:56;;;;;;;12.80;3.28;;;;;;;;;;5022330;28;20368;-46
2021/05/25 11:26:40;;;;;;;6.43;3.67;;;;;;;;;;5019997;28;20550;-47
2021/05/25 11:29:16;;;;;;;12.68;3.22;;;;;;;;;;5022815;28;20103;-46
2021/05/25 11:31:41;;;;;;;8.23;3.47;;;;;;;;;;5019714;28;20044;-43
2021/05/25 11:34:07;;;;;;;6.13;2.30;;;;;;;;;;5021512;28;20022;-44
2021/05/25 11:36:34;;;;;;;6.95;2.38;;;;;;;;;;5021633;28;20034;-46
2021/05/25 11:39:00;;;;;;;9.32;3.83;;;;;;;;;;5022671;28;20033;-45
2021/05/25 11:41:25;;;;;;;13.10;3.30;;;;;;;;;;5020621;28;20057;-44
2021/05/25 11:44:12;;;;;;;6.25;1.88;;;;;;;;;;5021488;28;20143;-45
2021/05/25 11:46:38;;;;;;;8.15;3.78;;;;;;;;;;5018899;28;20038;-43
2021/05/25 11:49:04;;;;;;;8.48;3.35;;;;;;;;;;5021773;28;20033;-44
2021/05/25 11:51:29;;;;;;;13.57;3.75;;;;;;;;;;5020637;28;20044;-47
2021/05/25 11:54:05;;;;;;;7.20;2.90;;;;;;;;;;5021598;28;20029;-46
2021/05/25 11:56:30;;;;;;;9.65;3.15;;;;;;;;;;5022440;28;20032;-48
2021/05/25 11:58:56;;;;;;;16.90;4.38;;;;;;;;;;5021587;28;20022;-44
2021/05/25 12:01:22;;;;;;;5.55;3.13;;;;;;;;;;5021743;28;20106;-45
2021/05/25 12:03:49;;;;;;;11.40;4.05;;;;;;;;;;5023681;28;20092;-45
2021/05/25 12:06:14;;;;;;;15.43;4.03;;;;;;;;;;5022318;28;20049;-49
2021/05/25 12:08:39;;;;;;;12.52;2.83;;;;;;;;;;5020064;28;20048;-44
2021/05/25 12:11:05;;;;;;;8.75;3.17;;;;;;;;;;5021652;28;20506;-47
2021/05/25 12:13:32;;;;;;;12.55;3.65;;;;;;;;;;5021704;28;20037;-43
2021/05/25 12:15:58;;;;;;;13.60;3.90;;;;;;;;;;5020596;28;20486;-47
2021/05/25 12:18:27;;;;;;;9.00;3.35;;;;;;;;;;5021177;28;20033;-43
2021/05/25 12:20:54;;;;;;;7.10;1.92;;;;;;;;;;5023851;28;20037;-45
2021/05/25 12:23:21;;;;;;;14.98;3.40;;;;;;;;;;5020336;28;20029;-42
2021/05/25 12:25:51;;;;;;;5.97;3.60;;;;;;;;;;5018575;28;20052;-47
2021/05/25 12:28:21;;;;;;;5.82;2.35;;;;;;;;;;5016189;28;20517;-42
2021/05/25 12:30:49;;;;;;;9.73;4.63;;;;;;;;;;5018320;28;20422;-44
2021/05/25 12:33:26;;;;;;;7.82;3.55;;;;;;;;;;5019121;28;20025;-45
2021/05/25 12:35:52;;;;;;;8.30;2.45;;;;;;;;;;5020030;28;20093;-46
2021/05/25 12:38:18;;;;;;;8.35;3.13;;;;;;;;;;5018633;28;20034;-45
2021/05/25 12:40:47;;;;;;;10.80;4.32;;;;;;;;;;5020034;28;20026;-45
2021/05/25 12:43:15;;;;;;;8.77;3.22;;;;;;;;;;5020227;28;20048;-45
2021/05/25 12:45:43;;;;;;;8.40;2.83;;;;;;;;;;5018402;28;20026;-44
2021/05/25 12:48:08;;;;;;;4.80;2.03;;;;;;;;;;5015678;28;20112;-44
2021/05/25 12:50:37;;;;;;;5.80;3.53;;;;;;;;;;5019123;28;20116;-46
2021/05/25 12:53:07;;;;;;;12.40;3.58;;;;;;;;;;5017635;28;20030;-46
2021/05/25 12:55:33;;;;;;;15.02;3.55;;;;;;;;;;5014761;28;20030;-43
2021/05/25 12:57:59;;;;;;;5.53;3.05;;;;;;;;;;5020345;28;20557;-42
2021/05/25 13:00:34;;;;;;;4.45;2.53;;;;;;;;;;5019137;28;20033;-47
2021/05/25 13:03:00;;;;;;;12.77;3.45;;;;;;;;;;5020353;28;20029;-47
2021/05/25 13:05:27;;;;;;;17.08;4.90;;;;;;;;;;5020604;28;20115;-43
2021/05/25 13:08:03;;;;;;;6.43;3.15;;;;;;;;;;5018043;28;20026;-43
2021/05/25 13:10:33;;;;;;;4.28;2.47;;;;;;;;;;5019122;28;20127;-43
2021/05/25 13:13:16;;;;;;;13.43;2.83;;;;;;;;;;5019010;28;20045;-44
2021/05/25 13:15:46;;;;;;;10.18;3.40;;;;;;;;;;5016836;28;20065;-44
2021/05/25 13:18:13;;;;;;;8.43;2.60;;;;;;;;;;5014593;28;20026;-44
2021/05/25 13:20:41;;;;;;;4.22;2.65;;;;;;;;;;5017979;28;20117;-43
2021/05/25 13:23:24;;;;;;;9.90;4.53;;;;;;;;;;5018922;28;20033;-45
2021/05/25 13:28:53;;;;;;;5.00;2.88;;;;;;;;;;5005876;28;20622;-47
2021/05/25 13:31:25;;;;;;;8.55;2.70;;;;;;;;;;5018648;28;20558;-46
2021/05/25 13:33:51;;;;;;;11.57;4.22;;;;;;;;;;5019153;28;20056;-46
2021/05/25 13:36:17;;;;;;;10.35;3.78;;;;;;;;;;5016659;28;20029;-46
2021/05/25 13:38:44;;;;;;;12.63;3.47;;;;;;;;;;5017428;28;20029;-44
2021/05/25 13:41:09;;;;;;;7.18;3.75;;;;;;;;;;5019374;28;20033;-44
2021/05/25 13:43:35;;;;;;;8.63;3.33;;;;;;;;;;5013162;28;20399;-43
2021/05/25 13:46:01;;;;;;;10.35;3.65;;;;;;;;;;5015427;28;20317;-43
2021/05/25 13:48:26;;;;;;;5.15;2.80;;;;;;;;;;5016045;28;20038;-47
2021/05/25 13:50:52;;;;;;;16.88;4.20;;;;;;;;;;5020025;28;20033;-46
2021/05/25 13:53:17;;;;;;;6.15;3.13;;;;;;;;;;5019463;28;20391;-42
2021/05/25 13:55:42;;;;;;;8.98;3.42;;;;;;;;;;5020671;28;20137;-44
2021/05/25 13:58:08;;;;;;;10.07;3.50;;;;;;;;;;5017067;28;20502;-43
2021/05/25 14:01:21;;;;;;;9.90;3.45;;;;;;;;;;5020279;28;20026;-43
2021/05/25 14:03:25;;;;;;;9.70;3.70;;;;;;;;;;5014128;28;20491;-46
2021/05/25 14:05:51;;;;;;;14.73;2.85;;;;;;;;;;5019328;28;20037;-46
2021/05/25 14:08:17;;;;;;;9.50;2.53;;;;;;;;;;5017355;28;20050;-43
2021/05/25 14:10:43;;;;;;;22.80;3.97;;;;;;;;;;5013427;28;20506;-45
2021/05/25 14:13:09;;;;;;;6.57;3.05;;;;;;;;;;5018746;28;20061;-43
2021/05/25 14:15:37;;;;;;;9.88;2.65;;;;;;;;;;5019354;28;20069;-45
2021/05/25 14:18:02;;;;;;;5.65;2.92;;;;;;;;;;5019126;28;20094;-45
2021/05/25 14:20:27;;;;;;;5.68;2.05;;;;;;;;;;5016567;28;20065;-43
2021/05/25 14:22:54;;;;;;;11.00;3.35;;;;;;;;;;5017268;28;20506;-46
2021/05/25 14:25:19;;;;;;;8.57;3.65;;;;;;;;;;5016033;28;20052;-48
2021/05/25 14:27:45;;;;;;;8.65;3.15;;;;;;;;;;5020017;28;20547;-43
2021/05/25 14:30:10;;;;;;;14.70;4.25;;;;;;;;;;5020034;28;20037;-49
2021/05/25 14:32:36;;;;;;;21.42;4.32;;;;;;;;;;5018890;28;20038;-43
2021/05/25 14:35:01;;;;;;;14.52;4.38;;;;;;;;;;5016993;28;20040;-44
2021/05/25 14:37:26;;;;;;;7.70;2.33;;;;;;;;;;5016802;28;20075;-48
2021/05/25 14:39:52;;;;;;;9.85;2.88;;;;;;;;;;5016878;28;20041;-47
2021/05/25 14:42:17;;;;;;;14.95;2.95;;;;;;;;;;5001693;28;20026;-43
2021/05/25 14:44:42;;;;;;;15.10;3.22;;;;;;;;;;5020293;28;20033;-48
2021/05/25 14:47:08;;;;;;;10.98;3.33;;;;;;;;;;5018232;28;20087;-45
2021/05/25 14:49:33;;;;;;;5.15;1.80;;;;;;;;;;5017994;28;20394;-43
2021/05/25 14:51:58;;;;;;;11.73;4.47;;;;;;;;;;5016030;28;20501;-44
2021/05/25 14:54:24;;;;;;;6.30;2.05;;;;;;;;;;5021303;28;20084;-45
2021/05/25 14:56:55;;;;;;;9.98;3.58;;;;;;;;;;5013900;28;20498;-46